Terminal Aerodrome Forecast
Issued by NWS

Home | Current Version | Previous Version | Text Only | Print | Product List | Glossary On
Versions: 1 2 3 4 5 6 7 8 9 10 11 12 13 14
000
FTUS46 KSEW 221700
TAFCLM
TAF
KCLM 221737Z 2218/2318 00000KT P6SM SCT045
     FM222000 35007KT P6SM SCT250
     FM230300 25005KT P6SM SCT250
     FM231200 VRB03KT P6SM SCT008 SCT250=

USA.gov is the U.S. government's official web portal to all federal, state and local government web resources and services.